createdAt,value
2019-01-06T00:02:17.139Z,101623.45
2019-01-06T00:05:05.724Z,101625.00
2019-01-06T00:07:53.896Z,101617.63
2019-01-06T00:10:42.369Z,101622.65
2019-01-06T00:13:30.809Z,101614.44
2019-01-06T00:16:18.971Z,101613.59
2019-01-06T00:19:07.415Z,101598.45
2019-01-06T00:21:56.209Z,101598.29
2019-01-06T00:24:44.664Z,101602.63
2019-01-06T00:27:52.152Z,101607.02
2019-01-06T00:30:40.598Z,101614.05
2019-01-06T00:33:29.149Z,101616.42
2019-01-06T00:39:11.510Z,101549.34
2019-01-06T00:41:59.928Z,101615.39
2019-01-06T00:44:43.468Z,101608.86
2019-01-06T00:47:32.321Z,101608.52
2019-01-06T00:50:20.779Z,101610.20
2019-01-06T00:53:09.578Z,101587.84
2019-01-06T00:55:58.029Z,101618.12
2019-01-06T00:58:46.226Z,101607.06
2019-01-06T01:01:33.731Z,101576.14
2019-01-06T01:04:21.879Z,101613.78
2019-01-06T01:07:11.190Z,101609.22
2019-01-06T01:10:00.031Z,101611.09
2019-01-06T01:12:49.263Z,101608.56
2019-01-06T01:15:38.527Z,101604.88
2019-01-06T01:18:27.087Z,101625.55
2019-01-06T01:21:15.324Z,101627.39
2019-01-06T01:24:03.755Z,101637.00
2019-01-06T01:26:52.172Z,101630.78
2019-01-06T01:29:40.601Z,101624.90
2019-01-06T01:32:29.093Z,101623.10
2019-01-06T01:35:17.875Z,101613.84
2019-01-06T01:38:06.051Z,101606.28
2019-01-06T01:40:54.502Z,101614.04
2019-01-06T01:43:42.953Z,101621.27
2019-01-06T01:46:31.158Z,101617.92
2019-01-06T01:49:19.566Z,101629.69
2019-01-06T01:52:08.385Z,101641.14
2019-01-06T01:54:56.828Z,101656.63
2019-01-06T01:57:45.264Z,101656.48
2019-01-06T02:03:30.890Z,101658.36
2019-01-06T02:06:19.025Z,101656.33
2019-01-06T02:12:04.494Z,101656.20
2019-01-06T02:20:35.575Z,101668.63
2019-01-06T02:43:06.589Z,101680.53
2019-01-06T02:59:57.521Z,101681.10
2019-01-06T03:02:45.698Z,101678.77
2019-01-06T03:05:33.839Z,101674.92
2019-01-06T03:08:22.266Z,101674.77
2019-01-06T03:11:08.124Z,101680.30
2019-01-06T03:13:56.274Z,101684.02
2019-01-06T03:16:44.424Z,101677.46
2019-01-06T03:19:32.587Z,101671.27
2019-01-06T03:22:20.721Z,101681.69
2019-01-06T03:25:09.027Z,101676.31
2019-01-06T03:27:49.453Z,101674.31
2019-01-06T03:30:37.638Z,101670.93
2019-01-06T03:33:26.057Z,101677.34
2019-01-06T03:36:14.461Z,101675.84
2019-01-06T03:39:02.620Z,101676.00
2019-01-06T03:41:50.791Z,101676.66
2019-01-06T03:44:38.982Z,101670.28
2019-01-06T03:47:27.127Z,101676.84
2019-01-06T03:50:15.305Z,101666.09
2019-01-06T03:53:03.485Z,101667.28
2019-01-06T03:55:51.720Z,101673.16
2019-01-06T03:58:39.860Z,101674.16
2019-01-06T04:01:28.033Z,101680.69
2019-01-06T04:04:16.187Z,101664.56
2019-01-06T04:07:04.318Z,101665.25
2019-01-06T04:09:52.505Z,101660.41
2019-01-06T04:12:40.661Z,101657.03
2019-01-06T04:15:28.845Z,101662.09
2019-01-06T04:18:16.968Z,101662.41
2019-01-06T04:21:05.168Z,101664.44
2019-01-06T04:23:53.586Z,101659.41
2019-01-06T04:26:41.796Z,101659.06
2019-01-06T04:29:29.951Z,101654.03
2019-01-06T04:32:18.116Z,101660.41
2019-01-06T04:35:06.258Z,101658.25
2019-01-06T04:37:54.702Z,101654.72
2019-01-06T04:40:42.823Z,101663.94
2019-01-06T04:43:30.987Z,101657.88
2019-01-06T04:46:19.172Z,101658.56
2019-01-06T04:49:07.355Z,101652.19
2019-01-06T04:51:55.805Z,101657.88
2019-01-06T04:54:43.969Z,101659.22
2019-01-06T04:57:32.132Z,101662.25
2019-01-06T05:00:20.542Z,101654.19
2019-01-06T05:03:08.696Z,101655.84
2019-01-06T05:05:56.871Z,101656.19
2019-01-06T05:08:45.030Z,101660.72
2019-01-06T05:11:33.157Z,101651.11
2019-01-06T05:14:21.329Z,101654.50
2019-01-06T05:17:09.515Z,101656.49
2019-01-06T05:19:57.696Z,101652.80
2019-01-06T05:22:45.845Z,101656.84
2019-01-06T05:25:34.311Z,101657.68
2019-01-06T05:28:22.731Z,101657.18
2019-01-06T05:31:10.909Z,101656.14
2019-01-06T05:33:59.058Z,101661.52
2019-01-06T05:36:47.218Z,101662.67
2019-01-06T05:39:37.083Z,101661.48
2019-01-06T05:42:25.280Z,101656.98
2019-01-06T05:45:13.488Z,101660.33
2019-01-06T05:48:01.622Z,101669.55
2019-01-06T05:50:50.062Z,101666.05
2019-01-06T05:53:38.236Z,101658.30
2019-01-06T05:56:26.681Z,101675.92
2019-01-06T05:59:14.829Z,101671.23
2019-01-06T06:01:56.796Z,101672.08
2019-01-06T06:04:44.954Z,101672.08
2019-01-06T06:07:33.111Z,101670.89
2019-01-06T06:10:21.233Z,101669.55
2019-01-06T06:13:09.698Z,101659.48
2019-01-06T06:15:57.834Z,101675.96
2019-01-06T06:18:45.978Z,101672.93
2019-01-06T06:21:34.532Z,101669.59
2019-01-06T06:24:22.627Z,101666.75
2019-01-06T06:27:10.787Z,101677.34
2019-01-06T06:29:58.945Z,101676.16
2019-01-06T06:32:47.115Z,101677.69
2019-01-06T06:35:35.257Z,101679.72
2019-01-06T06:38:23.705Z,101686.75
2019-01-06T06:41:11.873Z,101680.22
2019-01-06T06:44:00.067Z,101680.07
2019-01-06T06:46:48.529Z,101682.45
2019-01-06T06:49:36.705Z,101690.67
2019-01-06T06:52:24.856Z,101689.17
2019-01-06T06:55:13.109Z,101696.23
2019-01-06T06:58:39.611Z,101701.42
2019-01-06T07:01:49.485Z,101711.02
2019-01-06T07:04:38.155Z,101713.89
2019-01-06T07:07:26.294Z,101707.86
2019-01-06T07:10:14.473Z,101720.30
2019-01-06T07:13:02.916Z,101720.80
2019-01-06T07:15:51.105Z,101721.83
2019-01-06T07:18:43.807Z,101729.89
2019-01-06T07:21:32.269Z,101716.45
2019-01-06T07:24:20.802Z,101733.61
2019-01-06T07:27:09.221Z,101740.33
2019-01-06T07:29:57.470Z,101753.08
2019-01-06T07:32:45.889Z,101751.39
2019-01-06T07:35:34.054Z,101760.80
2019-01-06T07:38:22.191Z,101764.52
2019-01-06T07:41:10.363Z,101772.89
2019-01-06T07:47:05.666Z,101771.23
2019-01-06T07:49:53.818Z,101780.80
2019-01-06T07:52:42.349Z,101775.42
2019-01-06T07:55:30.495Z,101785.01
2019-01-06T07:58:18.691Z,101789.37
2019-01-06T08:01:06.834Z,101788.88
2019-01-06T08:03:54.987Z,101798.45
2019-01-06T08:06:43.192Z,101794.76
2019-01-06T08:09:31.615Z,101800.45
2019-01-06T08:12:20.126Z,101805.14
2019-01-06T08:15:08.256Z,101803.30
2019-01-06T08:17:56.421Z,101810.70
2019-01-06T08:20:44.572Z,101810.03
2019-01-06T08:23:32.726Z,101807.69
2019-01-06T08:26:20.858Z,101803.16
2019-01-06T08:29:09.038Z,101815.25
2019-01-06T08:31:57.189Z,101815.59
2019-01-06T08:34:45.383Z,101817.59
2019-01-06T08:37:33.574Z,101817.59
2019-01-06T08:40:21.707Z,101820.63
2019-01-06T08:43:09.869Z,101820.28
2019-01-06T08:45:58.009Z,101829.03
2019-01-06T08:48:46.189Z,101828.50
2019-01-06T08:51:34.332Z,101829.02
2019-01-06T08:54:22.562Z,101833.73
2019-01-06T08:57:10.677Z,101828.52
2019-01-06T08:59:58.843Z,101833.68
2019-01-06T09:02:47.064Z,101833.00
2019-01-06T09:05:35.458Z,101837.40
2019-01-06T09:08:23.656Z,101842.38
2019-01-06T09:11:11.852Z,101837.16
2019-01-06T09:13:58.192Z,101837.82
2019-01-06T09:16:46.344Z,101840.70
2019-01-06T09:27:47.006Z,101845.89
2019-01-06T09:30:35.456Z,101846.87
2019-01-06T09:33:23.654Z,101846.87
2019-01-06T09:36:11.790Z,101842.67
2019-01-06T09:38:59.937Z,101846.89
2019-01-06T09:41:48.073Z,101843.68
2019-01-06T09:44:36.223Z,101847.37
2019-01-06T09:47:24.390Z,101848.06
2019-01-06T09:50:06.360Z,101845.05
2019-01-06T09:52:54.486Z,101848.89
2019-01-06T09:55:42.639Z,101849.06
2019-01-06T09:58:30.774Z,101846.72
2019-01-06T10:01:19.205Z,101856.44
2019-01-06T10:04:07.393Z,101854.25
2019-01-06T10:06:55.522Z,101857.58
2019-01-06T10:09:43.694Z,101853.88
2019-01-06T10:12:31.926Z,101848.00
2019-01-06T10:15:20.354Z,101861.42
2019-01-06T10:18:08.486Z,101861.92
2019-01-06T10:20:56.624Z,101856.57
2019-01-06T10:23:40.124Z,101849.53
2019-01-06T10:26:28.292Z,101857.39
2019-01-06T10:29:16.428Z,101860.42
2019-01-06T10:32:04.579Z,101857.05
2019-01-06T10:37:47.619Z,101863.72
2019-01-06T10:40:35.797Z,101843.89
2019-01-06T10:43:23.963Z,101854.15
2019-01-06T10:46:12.513Z,101853.98
2019-01-06T10:49:00.711Z,101856.34
2019-01-06T10:51:48.889Z,101852.45
2019-01-06T10:54:37.041Z,101845.73
2019-01-06T10:57:25.581Z,101850.11
2019-01-06T11:00:13.957Z,101850.27
2019-01-06T11:03:02.126Z,101846.61
2019-01-06T11:05:50.315Z,101842.05
2019-01-06T11:08:38.471Z,101846.08
2019-01-06T11:11:26.631Z,101840.85
2019-01-06T11:14:15.084Z,101840.85
2019-01-06T11:17:03.534Z,101845.55
2019-01-06T11:19:51.666Z,101840.35
2019-01-06T11:22:39.855Z,101834.13
2019-01-06T11:25:28.002Z,101826.44
2019-01-06T11:28:11.554Z,101830.97
2019-01-06T11:30:59.710Z,101818.68
2019-01-06T11:33:47.850Z,101819.87
2019-01-06T11:36:36.044Z,101829.28
2019-01-06T11:39:44.738Z,101824.41
2019-01-06T11:42:32.911Z,101823.06
2019-01-06T11:45:21.065Z,101824.09
2019-01-06T11:48:09.249Z,101818.00
2019-01-06T11:50:57.961Z,101823.06
2019-01-06T11:53:38.285Z,101821.06
2019-01-06T11:56:26.457Z,101822.69
2019-01-06T11:59:14.877Z,101811.61
2019-01-06T12:02:03.113Z,101812.77
2019-01-06T12:04:51.272Z,101805.33
2019-01-06T12:07:39.450Z,101815.17
2019-01-06T12:10:27.622Z,101806.75
2019-01-06T12:13:16.376Z,101814.48
2019-01-06T12:16:04.529Z,101803.83
2019-01-06T12:18:52.676Z,101798.14
2019-01-06T12:21:41.108Z,101799.64
2019-01-06T12:24:29.552Z,101797.80
2019-01-06T12:27:17.720Z,101793.61
2019-01-06T12:30:05.858Z,101795.22
2019-01-06T12:33:13.085Z,101787.64
2019-01-06T12:36:01.559Z,101778.94
2019-01-06T12:38:50.014Z,101774.55
2019-01-06T12:41:38.518Z,101768.56
2019-01-06T12:44:27.087Z,101757.90
2019-01-06T12:47:15.589Z,101758.23
2019-01-06T12:50:03.840Z,101755.59
2019-01-06T12:52:52.083Z,101754.20
2019-01-06T12:55:40.241Z,101747.95
2019-01-06T12:58:28.402Z,101728.05
2019-01-06T13:01:16.522Z,101735.55
2019-01-06T13:04:04.958Z,101727.01
2019-01-06T13:06:53.111Z,101723.77
2019-01-06T13:09:41.261Z,101717.71
2019-01-06T13:12:29.676Z,101716.36
2019-01-06T13:15:17.844Z,101717.38
2019-01-06T13:18:06.048Z,101713.58
2019-01-06T13:24:01.314Z,101701.23
2019-01-06T13:26:50.028Z,101705.27
2019-01-06T13:29:38.164Z,101696.16
2019-01-06T13:32:26.323Z,101692.36
2019-01-06T13:35:14.523Z,101697.55
2019-01-06T13:38:02.680Z,101694.21
2019-01-06T13:40:50.900Z,101699.52
2019-01-06T13:43:39.409Z,101695.43
2019-01-06T13:46:27.983Z,101697.70
2019-01-06T13:49:16.171Z,101697.79
2019-01-06T13:52:04.578Z,101700.95
2019-01-06T13:57:47.687Z,101698.58
2019-01-06T14:00:35.857Z,101703.68
2019-01-06T14:03:23.988Z,101704.77
2019-01-06T14:06:07.266Z,101704.33
2019-01-06T14:08:52.127Z,101700.65
2019-01-06T14:11:40.272Z,101710.87
2019-01-06T14:14:28.715Z,101713.05
2019-01-06T14:17:17.134Z,101702.34
2019-01-06T14:20:05.719Z,101712.77
2019-01-06T14:22:53.871Z,101712.83
2019-01-06T14:25:42.296Z,101712.73
2019-01-06T14:28:30.423Z,101710.41
2019-01-06T14:31:18.589Z,101706.81
2019-01-06T14:34:06.807Z,101712.05
2019-01-06T14:36:48.544Z,101722.33
2019-01-06T14:39:36.697Z,101725.02
2019-01-06T14:42:24.866Z,101727.17
2019-01-06T14:45:13.049Z,101729.36
2019-01-06T14:47:51.683Z,101729.61
2019-01-06T14:50:39.835Z,101725.28
2019-01-06T14:53:29.704Z,101736.55
2019-01-06T14:56:17.860Z,101728.13
2019-01-06T14:59:06.022Z,101734.70
2019-01-06T15:01:54.217Z,101726.43
2019-01-06T15:04:42.358Z,101726.93
2019-01-06T15:07:30.528Z,101728.67
2019-01-06T15:10:15.073Z,101731.52
2019-01-06T15:13:03.548Z,101732.17
2019-01-06T15:15:51.703Z,101732.06
2019-01-06T15:18:39.819Z,101732.88
2019-01-06T15:21:27.990Z,101734.55
2019-01-06T15:24:16.138Z,101732.37
2019-01-06T15:27:04.315Z,101732.41
2019-01-06T15:29:52.444Z,101734.66
2019-01-06T15:32:40.896Z,101738.36
2019-01-06T15:35:29.656Z,101736.37
2019-01-06T15:38:18.126Z,101736.53
2019-01-06T15:41:06.282Z,101739.45
2019-01-06T15:43:54.433Z,101748.23
2019-01-06T15:46:42.856Z,101743.66
2019-01-06T15:49:31.039Z,101740.70
2019-01-06T15:52:19.192Z,101745.09
2019-01-06T15:55:07.318Z,101739.90
2019-01-06T15:57:55.498Z,101745.97
2019-01-06T16:00:43.637Z,101742.94
2019-01-06T16:03:31.785Z,101742.44
2019-01-06T16:06:19.924Z,101747.17
2019-01-06T16:09:08.089Z,101748.67
2019-01-06T16:11:56.287Z,101747.02
2019-01-06T16:14:44.423Z,101750.55
2019-01-06T16:17:32.588Z,101751.90
2019-01-06T16:20:20.737Z,101750.91
2019-01-06T16:23:08.893Z,101752.94
2019-01-06T16:25:49.608Z,101753.59
2019-01-06T16:28:37.752Z,101753.63
2019-01-06T16:31:25.874Z,101753.33
2019-01-06T16:34:14.059Z,101753.67
2019-01-06T16:40:09.410Z,101754.02
2019-01-06T16:42:57.610Z,101754.91
2019-01-06T16:45:45.731Z,101758.20
2019-01-06T16:48:33.928Z,101767.44
2019-01-06T16:51:22.085Z,101763.55
2019-01-06T16:54:10.243Z,101765.39
2019-01-06T16:56:58.367Z,101763.90
2019-01-06T16:59:46.524Z,101766.24
2019-01-06T17:02:34.650Z,101768.09
2019-01-06T17:05:15.152Z,101772.08
2019-01-06T17:08:03.323Z,101767.97
2019-01-06T17:10:51.466Z,101764.05
2019-01-06T17:13:39.942Z,101758.67
2019-01-06T17:16:28.112Z,101767.39
2019-01-06T17:19:16.562Z,101759.05
2019-01-06T17:22:04.703Z,101771.43
2019-01-06T17:24:52.860Z,101769.13
2019-01-06T17:27:40.980Z,101764.31
2019-01-06T17:30:29.409Z,101770.35
2019-01-06T17:33:17.917Z,101767.78
2019-01-06T17:36:25.315Z,101768.47
2019-01-06T17:39:13.467Z,101766.82
2019-01-06T17:42:01.598Z,101768.47
2019-01-06T17:44:49.767Z,101764.44
2019-01-06T17:47:31.574Z,101768.47
2019-01-06T17:50:20.318Z,101773.31
2019-01-06T17:53:08.459Z,101774.35
2019-01-06T17:55:56.611Z,101779.54
2019-01-06T17:58:44.744Z,101777.89
2019-01-06T18:01:32.955Z,101786.45
2019-01-06T18:04:29.849Z,101780.23
2019-01-06T18:07:17.970Z,101787.61
2019-01-06T18:10:06.124Z,101798.72
2019-01-06T18:12:55.066Z,101798.88
2019-01-06T18:15:43.596Z,101801.75
2019-01-06T18:18:32.002Z,101801.79
2019-01-06T18:21:20.496Z,101805.33
2019-01-06T18:24:08.670Z,101810.33
2019-01-06T18:26:56.851Z,101806.29
2019-01-06T18:41:31.359Z,101814.62
2019-01-06T18:44:40.100Z,101818.24
2019-01-06T18:47:28.497Z,101820.63
2019-01-06T18:50:16.683Z,101817.92
2019-01-06T18:53:04.827Z,101815.23
2019-01-06T18:55:53.003Z,101817.62
2019-01-06T18:58:41.423Z,101823.50
2019-01-06T19:01:29.573Z,101787.84
2019-01-06T19:04:17.709Z,101823.69
2019-01-06T19:07:06.181Z,101825.22
2019-01-06T19:09:54.328Z,101826.22
2019-01-06T19:13:02.710Z,101822.41
2019-01-06T19:15:46.230Z,101825.75
2019-01-06T19:18:34.440Z,101818.21
2019-01-06T19:21:22.956Z,101826.78
2019-01-06T19:24:11.073Z,101825.97
2019-01-06T19:26:59.552Z,101830.19
2019-01-06T19:29:47.967Z,101834.38
2019-01-06T19:32:34.355Z,101842.31
2019-01-06T19:35:24.562Z,101841.97
2019-01-06T19:38:13.040Z,101846.98
2019-01-06T19:41:01.208Z,101847.32
2019-01-06T19:43:49.358Z,101844.13
2019-01-06T19:46:37.764Z,101853.20
2019-01-06T19:49:26.203Z,101856.42
2019-01-06T19:52:33.640Z,101857.39
2019-01-06T19:55:21.781Z,101854.39
2019-01-06T19:58:10.233Z,101860.08
2019-01-06T20:00:58.346Z,101862.30
2019-01-06T20:04:07.066Z,101858.58
2019-01-06T20:06:55.214Z,101865.11
2019-01-06T20:09:43.350Z,101868.48
2019-01-06T20:12:50.589Z,101860.45
2019-01-06T20:15:38.719Z,101861.92
2019-01-06T20:18:20.064Z,101857.73
2019-01-06T20:21:08.888Z,101854.23
2019-01-06T20:23:57.050Z,101855.59
2019-01-06T20:26:45.588Z,101854.07
2019-01-06T20:29:34.282Z,101849.34
2019-01-06T20:32:23.092Z,101851.35
2019-01-06T20:35:11.223Z,101853.38
2019-01-06T20:37:53.765Z,101856.07
2019-01-06T20:41:00.988Z,101850.87
2019-01-06T20:43:49.611Z,101850.34
2019-01-06T20:46:56.925Z,101845.69
2019-01-06T20:49:45.082Z,101847.37
2019-01-06T20:52:41.349Z,101851.41
2019-01-06T20:55:23.891Z,101851.91
2019-01-06T20:58:31.604Z,101849.23
2019-01-06T21:01:19.744Z,101847.73
2019-01-06T21:04:08.300Z,101853.44
2019-01-06T21:06:56.852Z,101857.47
2019-01-06T21:09:45.019Z,101856.14
2019-01-06T21:12:33.212Z,101853.42
2019-01-06T21:15:21.606Z,101850.11
2019-01-06T21:18:09.768Z,101857.32
2019-01-06T21:20:58.165Z,101852.30
2019-01-06T21:23:46.656Z,101858.83
2019-01-06T21:26:34.816Z,101866.87
2019-01-06T21:29:23.021Z,101863.34
2019-01-06T21:32:11.707Z,101861.00
2019-01-06T21:34:52.875Z,101868.88
2019-01-06T21:37:38.187Z,101862.00
2019-01-06T21:40:26.859Z,101860.50
2019-01-06T21:43:15.264Z,101853.44
2019-01-06T21:46:03.465Z,101862.16
2019-01-06T21:48:54.123Z,101855.78
2019-01-06T21:52:01.620Z,101852.91
2019-01-06T21:54:49.882Z,101849.41
2019-01-06T21:57:38.364Z,101852.24
2019-01-06T22:00:27.351Z,101856.13
2019-01-06T22:09:02.455Z,101858.30
2019-01-06T22:11:50.636Z,101857.46
2019-01-06T22:14:38.810Z,101855.80
2019-01-06T22:17:27.465Z,101848.58
2019-01-06T22:20:34.669Z,101855.48
2019-01-06T22:23:22.919Z,101854.80
2019-01-06T22:26:11.082Z,101855.95
2019-01-06T22:28:59.216Z,101851.13
2019-01-06T22:31:47.388Z,101855.45
2019-01-06T22:34:35.513Z,101855.45
2019-01-06T22:37:23.697Z,101862.36
2019-01-06T22:40:11.843Z,101856.80
2019-01-06T22:43:00.031Z,101852.92
2019-01-06T22:45:48.257Z,101844.02
2019-01-06T22:48:36.467Z,101854.44
2019-01-06T22:51:24.956Z,101853.61
2019-01-06T22:54:13.085Z,101853.42
2019-01-06T22:57:01.501Z,101848.58
2019-01-06T22:59:49.931Z,101848.39
2019-01-06T23:02:38.349Z,101845.89
2019-01-06T23:05:27.126Z,101845.89
2019-01-06T23:08:15.579Z,101843.05
2019-01-06T23:11:03.748Z,101847.05
2019-01-06T23:13:51.892Z,101844.20
2019-01-06T23:16:41.466Z,101849.06
2019-01-06T23:19:29.890Z,101849.39
2019-01-06T23:22:18.316Z,101848.23
2019-01-06T23:25:06.496Z,101848.39
2019-01-06T23:27:54.676Z,101850.95
2019-01-06T23:30:45.099Z,101845.76
2019-01-06T23:33:33.622Z,101846.94
2019-01-06T23:36:21.866Z,101845.25
2019-01-06T23:39:10.005Z,101848.27
2019-01-06T23:41:58.150Z,101852.18
2019-01-06T23:44:46.759Z,101853.70
2019-01-06T23:47:34.883Z,101861.92
2019-01-06T23:50:23.120Z,101856.38
2019-01-06T23:53:11.284Z,101863.95
2019-01-06T23:55:59.443Z,101872.69
2019-01-06T23:58:37.326Z,101863.27
